createdAt,value
2022-10-18T00:02:49.740Z,9.80
2022-10-18T00:09:52.898Z,5.43
2022-10-18T00:16:58.872Z,6.80
2022-10-18T00:24:01.907Z,8.03
2022-10-18T00:31:07.781Z,8.60
2022-10-18T00:38:11.304Z,7.20
2022-10-18T00:45:17.293Z,5.80
2022-10-18T00:52:23.267Z,10.77
2022-10-18T00:59:27.594Z,8.07
2022-10-18T01:06:30.849Z,6.70
2022-10-18T01:14:02.369Z,9.97
2022-10-18T01:21:42.057Z,8.30
2022-10-18T01:29:13.107Z,6.63
2022-10-18T01:36:22.536Z,8.73
2022-10-18T01:43:27.365Z,9.50
2022-10-18T01:50:31.499Z,7.63
2022-10-18T01:58:01.455Z,9.10
2022-10-18T02:05:51.236Z,9.40
2022-10-18T02:13:14.057Z,10.33
2022-10-18T02:20:25.508Z,11.07
2022-10-18T02:27:31.082Z,8.67
2022-10-18T02:35:07.161Z,8.33
2022-10-18T02:42:11.837Z,6.73
2022-10-18T02:49:15.792Z,10.47
2022-10-18T02:56:19.347Z,8.07
2022-10-18T03:03:22.483Z,9.93
2022-10-18T03:10:25.562Z,10.73
2022-10-18T03:17:29.114Z,5.57
2022-10-18T03:24:32.356Z,9.13
2022-10-18T03:31:35.478Z,8.40
2022-10-18T03:38:39.035Z,9.40
2022-10-18T03:45:42.087Z,6.13
2022-10-18T03:52:45.544Z,8.43
2022-10-18T03:59:48.783Z,9.53
2022-10-18T04:06:52.630Z,7.70
2022-10-18T04:13:55.786Z,8.70
2022-10-18T04:20:58.964Z,5.87
2022-10-18T04:28:02.047Z,6.97
2022-10-18T04:35:05.246Z,9.50
2022-10-18T04:42:08.725Z,11.20
2022-10-18T04:49:11.810Z,7.73
2022-10-18T04:56:14.836Z,8.10
2022-10-18T05:03:18.023Z,8.77
2022-10-18T05:10:21.092Z,8.10
2022-10-18T05:17:24.182Z,6.80
2022-10-18T05:24:27.811Z,9.80
2022-10-18T05:31:30.962Z,10.10
2022-10-18T05:38:34.053Z,10.57
2022-10-18T05:45:37.342Z,10.07
2022-10-18T05:52:40.445Z,9.07
2022-10-18T05:59:44.905Z,10.20
2022-10-18T06:06:48.007Z,9.50
2022-10-18T06:13:51.153Z,11.63
2022-10-18T06:20:55.767Z,8.53
2022-10-18T06:28:02.510Z,9.50
2022-10-18T06:35:05.613Z,10.53
2022-10-18T06:42:09.987Z,12.77
2022-10-18T06:49:16.696Z,9.57
2022-10-18T06:56:22.212Z,13.73
2022-10-18T07:03:26.127Z,11.10
2022-10-18T07:10:29.192Z,10.70
2022-10-18T07:17:33.268Z,8.50
2022-10-18T07:24:38.170Z,12.10
2022-10-18T07:31:41.254Z,10.37
2022-10-18T07:38:44.825Z,6.63
2022-10-18T07:45:49.311Z,14.20
2022-10-18T07:52:52.437Z,10.13
2022-10-18T07:59:57.601Z,9.40
2022-10-18T08:07:01.154Z,8.83
2022-10-18T08:14:04.244Z,12.83
2022-10-18T08:21:08.593Z,10.70
2022-10-18T08:28:18.966Z,9.97
2022-10-18T08:35:22.207Z,6.17
2022-10-18T08:42:54.811Z,9.90
2022-10-18T08:50:00.177Z,6.47
2022-10-18T08:57:14.397Z,4.67
2022-10-18T09:04:47.544Z,12.63
2022-10-18T09:12:12.778Z,8.30
2022-10-18T09:19:34.040Z,9.20
2022-10-18T09:26:51.719Z,9.07
2022-10-18T09:34:17.516Z,11.07
2022-10-18T09:41:32.218Z,6.13
2022-10-18T09:48:42.661Z,12.17
2022-10-18T09:55:57.669Z,9.03
2022-10-18T10:03:01.293Z,10.50
2022-10-18T10:10:09.928Z,10.37
2022-10-18T10:17:23.997Z,13.17
2022-10-18T10:24:48.855Z,11.00
2022-10-18T10:31:54.314Z,12.90
2022-10-18T10:38:57.709Z,15.37
2022-10-18T10:46:04.538Z,20.90
2022-10-18T10:53:09.289Z,14.20
2022-10-18T11:00:22.216Z,9.00
2022-10-18T11:07:40.401Z,16.70
2022-10-18T11:15:25.060Z,12.13
2022-10-18T11:22:35.732Z,13.30
2022-10-18T11:30:23.029Z,9.30
2022-10-18T11:37:51.365Z,6.00
2022-10-18T11:45:03.970Z,12.80
2022-10-18T11:52:31.804Z,9.37
2022-10-18T12:00:05.758Z,8.00
2022-10-18T12:07:23.406Z,6.83
2022-10-18T12:14:47.089Z,6.10
2022-10-18T12:21:56.676Z,5.90
2022-10-18T12:29:08.752Z,6.00
2022-10-18T12:36:24.948Z,8.87
2022-10-18T12:43:36.667Z,7.80
2022-10-18T12:50:41.871Z,10.53
2022-10-18T12:57:47.354Z,8.47
2022-10-18T13:05:06.809Z,10.03
2022-10-18T13:12:13.053Z,10.67
2022-10-18T13:19:27.757Z,10.87
2022-10-18T13:26:44.329Z,9.03
2022-10-18T13:34:39.578Z,13.80
2022-10-18T13:41:45.754Z,12.50
2022-10-18T13:48:48.798Z,8.77
2022-10-18T13:56:25.084Z,10.40
2022-10-18T14:04:08.659Z,8.17
2022-10-18T14:11:46.164Z,9.37
2022-10-18T14:19:08.742Z,12.63
2022-10-18T14:33:58.425Z,13.63
2022-10-18T14:41:03.171Z,16.13
2022-10-18T14:48:29.197Z,20.27
2022-10-18T14:55:42.957Z,16.90
2022-10-18T15:03:24.463Z,14.23
2022-10-18T15:10:32.375Z,11.13
2022-10-18T15:17:36.555Z,25.77
2022-10-18T15:24:39.668Z,15.13
2022-10-18T15:31:44.436Z,23.03
2022-10-18T15:38:50.527Z,17.10
2022-10-18T15:45:54.389Z,17.77
2022-10-18T15:53:18.649Z,15.70
2022-10-18T16:00:26.227Z,23.57
2022-10-18T16:07:29.456Z,14.07
2022-10-18T16:14:32.549Z,32.67
2022-10-18T16:21:35.865Z,17.80
2022-10-18T16:28:39.398Z,18.47
2022-10-18T16:35:42.479Z,25.40
2022-10-18T16:42:46.036Z,23.07
2022-10-18T16:49:50.366Z,24.87
2022-10-18T16:57:01.623Z,38.60
2022-10-18T17:04:04.751Z,16.47
2022-10-18T17:11:08.544Z,14.60
2022-10-18T17:18:24.613Z,19.47
2022-10-18T17:25:27.976Z,12.97
2022-10-18T17:32:32.438Z,13.20
2022-10-18T17:39:35.703Z,15.43
2022-10-18T17:46:38.982Z,15.13
2022-10-18T17:53:45.840Z,17.73
2022-10-18T18:00:52.021Z,15.90
2022-10-18T18:07:56.874Z,18.83
2022-10-18T18:15:02.583Z,16.73
2022-10-18T18:22:05.817Z,19.77
2022-10-18T18:29:08.890Z,19.43
2022-10-18T18:36:12.226Z,15.63
2022-10-18T18:43:23.056Z,13.40
2022-10-18T18:50:28.206Z,15.50
2022-10-18T18:57:36.369Z,13.30
2022-10-18T19:04:41.338Z,17.37
2022-10-18T19:11:45.921Z,13.43
2022-10-18T19:18:50.880Z,13.47
2022-10-18T19:25:54.290Z,11.57
2022-10-18T19:33:04.250Z,18.33
2022-10-18T19:40:08.990Z,8.20
2022-10-18T19:47:12.098Z,11.50
2022-10-18T19:54:15.372Z,7.53
2022-10-18T20:01:19.381Z,5.97
2022-10-18T20:08:22.884Z,6.70
2022-10-18T20:15:27.508Z,9.53
2022-10-18T20:22:33.069Z,9.83
2022-10-18T20:29:36.707Z,6.87
2022-10-18T20:36:39.849Z,5.83
2022-10-18T20:43:43.154Z,6.83
2022-10-18T20:50:46.255Z,9.83
2022-10-18T20:57:49.683Z,8.13
2022-10-18T21:04:53.896Z,5.90
2022-10-18T21:11:57.122Z,5.90
2022-10-18T21:19:00.164Z,4.80
2022-10-18T21:26:03.331Z,8.97
2022-10-18T21:33:10.270Z,6.80
2022-10-18T21:40:16.374Z,5.80
2022-10-18T21:47:20.506Z,8.03
2022-10-18T21:54:24.888Z,2.80
2022-10-18T22:01:27.968Z,16.87
2022-10-18T22:08:32.444Z,8.47
2022-10-18T22:22:43.530Z,4.50
2022-10-18T22:29:48.233Z,6.60
2022-10-18T22:36:54.326Z,8.40
2022-10-18T22:43:59.717Z,7.80
2022-10-18T22:51:06.032Z,7.17
2022-10-18T22:58:10.125Z,6.27
2022-10-18T23:05:13.777Z,5.80
2022-10-18T23:12:17.261Z,6.57
2022-10-18T23:19:21.037Z,4.43
2022-10-18T23:26:24.135Z,5.73
2022-10-18T23:33:28.449Z,9.50
2022-10-18T23:40:32.018Z,2.67
2022-10-18T23:47:35.239Z,2.07
2022-10-18T23:54:39.284Z,5.23
